Ocoee 2 Observed Data For Previous 48 Hours

Note: Discharge information is a combination of river flows at the Ocoee No. 2 dam and the volume of water diverted by the Ocoee Flume, which bypasses the middle section of the river where recreational rafting is held.

Caption
Day and Hour Reservoir Elevation (behind dam)* Tailwater Elevation (below dam)* Average Hourly Discharge*
4/22/2018 2 AM EDT 842.72 1,659
4/22/2018 3 AM EDT 842.67 1,624
4/22/2018 4 AM EDT 842.69 1,624
4/22/2018 5 AM EDT 842.39 1,304
4/22/2018 6 AM EDT 842.38 1,287
4/22/2018 7 AM EDT 842.34 1,241
4/22/2018 8 AM EDT 842.35 1,248
4/22/2018 9 AM EDT 842.30 1,206
4/22/2018 10 AM EDT 842.54 1,447
4/22/2018 11 AM EDT 842.52 1,455
4/22/2018 12 PM EDT 842.53 1,455
4/22/2018 1 PM EDT 842.55 1,455
4/22/2018 2 PM EDT 842.55 1,455
4/22/2018 3 PM EDT 842.55 1,455
4/22/2018 4 PM EDT 842.56 1,455
4/22/2018 5 PM EDT 842.53 1,464
4/22/2018 6 PM EDT 842.92 1,907
4/22/2018 7 PM EDT 842.36 1,257
4/22/2018 8 PM EDT 842.31 1,219
4/22/2018 9 PM EDT 842.35 1,234
4/22/2018 10 PM EDT 842.35 1,248
4/22/2018 11 PM EDT 842.38 1,287
4/23/2018 12 AM EDT 842.35 1,248
4/23/2018 1 AM EDT 842.40 1,304
4/23/2018 2 AM EDT 842.37 1,273
4/23/2018 3 AM EDT 842.40 1,311
4/23/2018 4 AM EDT 842.41 1,319
4/23/2018 5 AM EDT 842.40 1,311
4/23/2018 6 AM EDT 842.45 1,349
4/23/2018 7 AM EDT 842.87 1,830
4/23/2018 8 AM EDT 842.79 1,757
4/23/2018 9 AM EDT 841.79 746
4/23/2018 10 AM EDT 841.27 383
4/23/2018 11 AM EDT 841.04 256
4/23/2018 12 PM EDT 842.93 1,907
4/23/2018 1 PM EDT 843.01 2,030
4/23/2018 2 PM EDT 843.04 2,087
4/23/2018 3 PM EDT 843.07 2,137
4/23/2018 4 PM EDT 843.08 2,127
4/23/2018 5 PM EDT 843.09 2,127
4/23/2018 6 PM EDT 843.06 2,127
4/23/2018 7 PM EDT 843.03 2,087
4/23/2018 8 PM EDT 843.03 2,059
4/23/2018 9 PM EDT 843.01 2,042
4/23/2018 10 PM EDT 842.98 2,010
4/23/2018 11 PM EDT 842.99 2,010
4/24/2018 12 AM EDT 842.97 2,002
4/24/2018 1 AM EDT 842.98 2,002
4/24/2018 2 AM EDT 842.99 2,020
4/24/2018 3 AM EDT 843.04 2,097
4/24/2018 4 AM EDT 843.23 2,332
4/24/2018 5 AM EDT 843.63 2,960
4/24/2018 6 AM EDT 844.04 3,678
4/24/2018 7 AM EDT 844.59 4,719
4/24/2018 8 AM EDT 844.61 4,719
4/24/2018 9 AM EDT 844.42 4,381
4/24/2018 10 AM EDT 844.26 4,032
4/24/2018 11 AM EDT 844.07 3,692
4/24/2018 12 PM EDT 843.88 3,378
4/24/2018 1 PM EDT 843.75 3,165
4/24/2018 2 PM EDT 843.91 3,430
4/24/2018 3 PM EDT 844.58 4,690
4/24/2018 4 PM EDT 844.88 5,300
4/24/2018 5 PM EDT 844.82 5,224
4/24/2018 6 PM EDT 844.75 5,080
4/24/2018 7 PM EDT 844.76 5,061
4/24/2018 8 PM EDT 844.71 4,920
4/24/2018 9 PM EDT 844.03 3,638
4/24/2018 10 PM EDT 843.97 3,495

Elevations are in feet above sea level. Discharges are in cubic feet per second and are reported at the end of the hour.